Aviation Digital Data Service (ADDS)

Output produced by METARs form (1447 UTC 23 January 2017)
found at http://aviationweather.gov/adds/metars/
 
KEWN 231139Z 2312/2412 16003KT P6SM SCT003 OVC008 
     FM231230 20007KT P6SM SCT010 
     FM231800 25005KT P6SM VCSH BKN035 
     FM240000 29008KT P6SM BKN015